Littleton, CO (80165)

2:57 PM MDT on August 30, 2014 (GMT -0600)
Bel-Vue Heights | Change Station
CLOSE
Current Station
Personal Weather Station
Location: Littleton, CO
Elevation: 5541 ft
Nearby Weather Stations

Elev 5541 ft 39.58 °N, 105.01 °W | Updated 25 seconds ago

Clear
Clear
87.8 °F
Feels Like 84 °F
N
1.2
Wind Variable Wind from WNW
Gusts 1.2 mph

Today
High -- | Low -- °F
--% Chance of Precip.
Yesterday
High -- | Low -- °F
Precip. -- in
6:26 AM 7:34 PM
Waxing Crescent, 24% visible
Pressure 29.81 in
Visibility 10.0 miles
Clouds Few 11000 ft
Few 18000 ft
Heat Index 84 °F
Dew Point 39 °F
Humidity 18%
Rainfall 0.00 in
Snow Depth Not available.
UV 2.1 out of 12
Pollen 10.50 out of 12
Ozone Good
PM2.5 Good
Flu Activity Not available.
METAR KAPA 301953Z VRB03KT 10SM FEW110 FEW180 28/00 A3002 RMK AO2 SLP093 T02780000

More Conditions Fewer Conditions

Pressure 29.81 in
Visibility 10.0 miles
Clouds Few 11000 ft
Few 18000 ft
Heat Index 84 °F
Dew Point 39 °F
Humidity 18%
Rainfall 0.00 in
Snow Depth Not available.
UV 2.1 out of 12
Pollen 10.50 out of 12
Ozone Good
PM2.5 Good
Flu Activity Not available.
METAR KAPA 301953Z VRB03KT 10SM FEW110 FEW180 28/00 A3002 RMK AO2 SLP093 T02780000

More Conditions Fewer Conditions

10-Day Weather Forecast

Almanac

Astronomy

Aug. 30, 2014 Rise Set
Actual Time 6:26 AM MDT 7:34 PM MDT
Civil Twilight 5:58 AM MDT 8:01 PM MDT
Nautical Twilight 5:25 AM MDT 8:34 PM MDT
Astronomical Twilight 4:51 AM MDT 9:09 PM MDT
Moon 11:15 AM MDT 10:11 PM MDT
Length of Visible Light 14h 03m
Length of Day
13h 07m
Tomorrow will be 2m 29s shorter.
Waxing Crescent, 24% of the Moon is Illuminated
Today
Waxing Crescent
Sep 2
First Quarter
Sep 8
Full
Sep 15
Last Quarter
Sep 24
New

Today's Extremes

State Highs State Lows

Community

WunderPhotos

Upload Photos

1,748,624 photos uploaded!

WunderBlogs® & News

Nearby

Air Quality

  Air Quality AQ Index Pollutant
Yesterday Good
OZONE
Yesterday Good
PM10
Current Good
OZONE
Current Good
PM2.5
Saturday Good
OZONE
Saturday Good
PM2.5
Sunday Good
OZONE
Sunday Good
PM2.5

Snow Depth

Station Depth Elevation
Loveland Basin 0 in 11400 ft
Rough And Tumble 0 in 10360 ft
Vail Mountain 87 in 10300 ft
Joe Wright 0 in 10120 ft
Mccoy Park 8 in 9480 ft

Earthquake Activity

City Distance Mag. Time & Date
No recent earthquake activity has been reported nearby.
Minimum magnitude displayed is 2.5.

Coastal Water Temperatures

Place Temperature
No Stations Reporting

Nearby Weather Stations